createdAt,value
2022-08-22T00:00:09.826Z,101350
2022-08-22T00:01:07.550Z,101350
2022-08-22T00:02:04.573Z,101350
2022-08-22T00:02:49.198Z,101370
2022-08-22T00:02:49.265Z,101380
2022-08-22T00:02:54.565Z,101370
2022-08-22T00:02:56.360Z,101360
2022-08-22T00:03:02.258Z,101350
2022-08-22T00:03:03.231Z,101360
2022-08-22T00:03:17.658Z,101350
2022-08-22T00:04:04.904Z,101350
2022-08-22T00:05:00.144Z,101350
2022-08-22T00:06:05.460Z,101350
2022-08-22T00:07:06.595Z,101350
2022-08-22T00:08:10.100Z,101350
2022-08-22T00:09:03.395Z,101350
2022-08-22T00:10:10.098Z,101350
2022-08-22T00:11:10.086Z,101350
2022-08-22T00:12:07.616Z,101350
2022-08-22T00:13:02.582Z,101350
2022-08-22T00:14:10.096Z,101350
2022-08-22T00:15:35.422Z,101350
2022-08-22T00:16:10.097Z,101350
2022-08-22T00:17:00.128Z,101350
2022-08-22T00:18:10.090Z,101350
2022-08-22T00:19:10.096Z,101350
2022-08-22T00:20:07.208Z,101350
2022-08-22T00:21:10.095Z,101350
2022-08-22T00:22:07.308Z,101350
2022-08-22T00:23:10.096Z,101350
2022-08-22T00:24:00.138Z,101350
2022-08-22T00:25:24.571Z,101350
2022-08-22T00:26:02.722Z,101350
2022-08-22T00:27:04.789Z,101350
2022-08-22T00:28:10.091Z,101350
2022-08-22T00:29:03.592Z,101350
2022-08-22T00:30:08.035Z,101350
2022-08-22T00:31:07.642Z,101350
2022-08-22T00:32:10.327Z,101350
2022-08-22T00:33:02.513Z,101350
2022-08-22T00:34:03.591Z,101350
2022-08-22T00:35:02.884Z,101350
2022-08-22T00:36:10.090Z,101350
2022-08-22T00:37:10.089Z,101350
2022-08-22T00:38:04.506Z,101350
2022-08-22T00:39:03.385Z,101350
2022-08-22T00:40:03.605Z,101350
2022-08-22T00:41:00.154Z,101350
2022-08-22T00:42:08.576Z,101350
2022-08-22T00:43:10.091Z,101350
2022-08-22T00:44:03.390Z,101350
2022-08-22T00:45:01.143Z,101350
2022-08-22T00:46:00.136Z,101350
2022-08-22T00:47:06.378Z,101350
2022-08-22T00:48:06.958Z,101350
2022-08-22T00:49:10.087Z,101350
2022-08-22T00:50:01.141Z,101350
2022-08-22T00:51:00.134Z,101350
2022-08-22T00:52:10.096Z,101350
2022-08-22T00:53:01.139Z,101350
2022-08-22T00:54:01.145Z,101350
2022-08-22T00:55:10.108Z,101350
2022-08-22T00:56:09.042Z,101350
2022-08-22T00:57:01.141Z,101350
2022-08-22T00:58:10.092Z,101350
2022-08-22T00:59:23.370Z,101350
2022-08-22T01:00:03.926Z,101350
2022-08-22T01:01:03.813Z,101350
2022-08-22T01:02:08.683Z,101360
2022-08-22T01:03:01.208Z,101360
2022-08-22T01:04:07.661Z,101360
2022-08-22T01:05:08.761Z,101360
2022-08-22T01:06:06.141Z,101360
2022-08-22T01:07:00.170Z,101360
2022-08-22T01:08:10.121Z,101360
2022-08-22T01:09:07.418Z,101360
2022-08-22T01:10:00.174Z,101360
2022-08-22T01:11:10.098Z,101350
2022-08-22T01:12:08.752Z,101350
2022-08-22T01:13:06.110Z,101350
2022-08-22T01:14:09.930Z,101350
2022-08-22T01:15:10.158Z,101350
2022-08-22T01:16:10.110Z,101350
2022-08-22T01:17:10.110Z,101360
2022-08-22T01:18:10.109Z,101360
2022-08-22T01:19:10.118Z,101360
2022-08-22T01:20:00.176Z,101360
2022-08-22T01:21:00.152Z,101360
2022-08-22T01:22:10.101Z,101350
2022-08-22T01:23:03.392Z,101350
2022-08-22T01:24:03.391Z,101360
2022-08-22T01:25:03.422Z,101360
2022-08-22T01:26:10.121Z,101350
2022-08-22T01:27:10.717Z,101350
2022-08-22T01:28:10.099Z,101350
2022-08-22T01:29:00.147Z,101350
2022-08-22T01:30:00.162Z,101350
2022-08-22T01:31:10.102Z,101350
2022-08-22T01:32:10.100Z,101350
2022-08-22T01:33:10.096Z,101360
2022-08-22T01:34:13.087Z,101360
2022-08-22T01:35:08.420Z,101360
2022-08-22T01:36:10.102Z,101360
2022-08-22T01:37:10.116Z,101360
2022-08-22T01:38:10.098Z,101360
2022-08-22T01:39:10.100Z,101360
2022-08-22T01:40:10.167Z,101360
2022-08-22T01:41:00.142Z,101360
2022-08-22T01:42:10.092Z,101350
2022-08-22T01:43:10.095Z,101350
2022-08-22T01:44:10.089Z,101350
2022-08-22T01:45:10.099Z,101350
2022-08-22T01:46:10.117Z,101350
2022-08-22T01:47:03.952Z,101350
2022-08-22T01:48:03.375Z,101350
2022-08-22T01:49:10.097Z,101350
2022-08-22T01:50:08.314Z,101350
2022-08-22T01:51:10.095Z,101350
2022-08-22T01:52:01.158Z,101350
2022-08-22T01:53:03.379Z,101350
2022-08-22T01:54:04.174Z,101350
2022-08-22T01:55:05.498Z,101350
2022-08-22T01:56:08.861Z,101350
2022-08-22T01:57:01.635Z,101350
2022-08-22T01:58:01.564Z,101350
2022-08-22T01:59:03.065Z,101350
2022-08-22T02:00:00.794Z,101340
2022-08-22T02:01:07.739Z,101350
2022-08-22T02:02:01.148Z,101350
2022-08-22T02:03:10.100Z,101340
2022-08-22T02:04:04.549Z,101340
2022-08-22T02:05:10.094Z,101340
2022-08-22T02:06:05.866Z,101340
2022-08-22T02:07:10.092Z,101340
2022-08-22T02:08:04.482Z,101340
2022-08-22T02:09:00.144Z,101340
2022-08-22T02:10:00.159Z,101340
2022-08-22T02:11:03.371Z,101340
2022-08-22T02:12:21.575Z,101340
2022-08-22T02:13:10.090Z,101340
2022-08-22T02:14:06.294Z,101340
2022-08-22T02:15:01.144Z,101340
2022-08-22T02:16:05.263Z,101340
2022-08-22T02:17:10.096Z,101340
2022-08-22T02:18:01.299Z,101340
2022-08-22T02:19:10.089Z,101340
2022-08-22T02:20:10.098Z,101340
2022-08-22T02:21:07.413Z,101340
2022-08-22T02:22:00.138Z,101340
2022-08-22T02:23:10.086Z,101340
2022-08-22T02:24:10.088Z,101340
2022-08-22T02:25:01.142Z,101340
2022-08-22T02:26:00.134Z,101340
2022-08-22T02:27:00.135Z,101340
2022-08-22T02:28:07.373Z,101340
2022-08-22T02:29:06.772Z,101340
2022-08-22T02:30:10.096Z,101340
2022-08-22T02:31:00.131Z,101340
2022-08-22T02:32:00.130Z,101340
2022-08-22T02:33:07.463Z,101330
2022-08-22T02:34:02.506Z,101330
2022-08-22T02:35:10.105Z,101330
2022-08-22T02:36:05.513Z,101330
2022-08-22T02:37:01.155Z,101330
2022-08-22T02:38:03.378Z,101330
2022-08-22T02:39:10.087Z,101330
2022-08-22T02:40:10.170Z,101330
2022-08-22T02:41:00.139Z,101330
2022-08-22T02:42:10.093Z,101330
2022-08-22T02:43:10.089Z,101330
2022-08-22T02:44:03.882Z,101330
2022-08-22T02:45:10.093Z,101320
2022-08-22T02:46:04.479Z,101320
2022-08-22T02:47:03.385Z,101320
2022-08-22T02:48:08.972Z,101320
2022-08-22T02:49:00.129Z,101320
2022-08-22T02:50:12.666Z,101320
2022-08-22T02:51:01.140Z,101320
2022-08-22T02:52:01.146Z,101320
2022-08-22T02:53:10.089Z,101330
2022-08-22T02:54:10.088Z,101330
2022-08-22T02:55:07.500Z,101320
2022-08-22T02:56:10.091Z,101320
2022-08-22T02:57:04.752Z,101320
2022-08-22T02:58:07.503Z,101320
2022-08-22T02:59:10.089Z,101320
2022-08-22T03:00:31.484Z,101320
2022-08-22T03:01:01.163Z,101320
2022-08-22T03:02:10.091Z,101320
2022-08-22T03:03:02.903Z,101320
2022-08-22T03:04:10.094Z,101320
2022-08-22T03:05:10.097Z,101320
2022-08-22T03:06:04.809Z,101320
2022-08-22T03:07:05.357Z,101320
2022-08-22T03:08:03.723Z,101320
2022-08-22T03:09:05.474Z,101320
2022-08-22T03:10:07.633Z,101320
2022-08-22T03:11:06.058Z,101320
2022-08-22T03:12:10.092Z,101320
2022-08-22T03:13:10.101Z,101310
2022-08-22T03:14:10.088Z,101310
2022-08-22T03:15:05.139Z,101310
2022-08-22T03:16:09.275Z,101320
2022-08-22T03:17:04.880Z,101320
2022-08-22T03:18:10.085Z,101310
2022-08-22T03:19:07.811Z,101310
2022-08-22T03:20:01.142Z,101310
2022-08-22T03:21:07.548Z,101310
2022-08-22T03:22:02.562Z,101310
2022-08-22T03:23:04.130Z,101310
2022-08-22T03:24:04.945Z,101310
2022-08-22T03:25:00.146Z,101310
2022-08-22T03:26:07.414Z,101310
2022-08-22T03:27:03.999Z,101310
2022-08-22T03:28:02.386Z,101310
2022-08-22T03:29:03.215Z,101310
2022-08-22T03:30:04.936Z,101310
2022-08-22T03:31:10.086Z,101310
2022-08-22T03:32:03.386Z,101310
2022-08-22T03:33:03.380Z,101310
2022-08-22T03:34:10.091Z,101310
2022-08-22T03:35:07.311Z,101310
2022-08-22T03:36:02.955Z,101310
2022-08-22T03:37:10.090Z,101310
2022-08-22T03:38:10.087Z,101310
2022-08-22T03:39:01.136Z,101310
2022-08-22T03:40:04.547Z,101310
2022-08-22T03:41:07.487Z,101310
2022-08-22T03:42:10.093Z,101310
2022-08-22T03:43:10.089Z,101310
2022-08-22T03:44:10.094Z,101310
2022-08-22T03:45:10.107Z,101300
2022-08-22T03:46:01.138Z,101300
2022-08-22T03:47:10.089Z,101300
2022-08-22T03:48:00.331Z,101300
2022-08-22T03:49:03.372Z,101300
2022-08-22T03:50:10.096Z,101300
2022-08-22T03:51:10.098Z,101290
2022-08-22T03:52:01.142Z,101290
2022-08-22T03:53:10.372Z,101290
2022-08-22T03:54:10.102Z,101290
2022-08-22T03:55:07.604Z,101290
2022-08-22T03:56:10.093Z,101290
2022-08-22T03:57:03.372Z,101290
2022-08-22T03:58:00.315Z,101300
2022-08-22T03:59:10.407Z,101300
2022-08-22T04:00:05.882Z,101300
2022-08-22T04:01:07.677Z,101300
2022-08-22T04:02:24.657Z,101300
2022-08-22T04:03:10.091Z,101300
2022-08-22T04:04:01.147Z,101300
2022-08-22T04:05:09.473Z,101290
2022-08-22T04:06:11.440Z,101290
2022-08-22T04:07:28.421Z,101290
2022-08-22T04:08:03.389Z,101290
2022-08-22T04:09:10.087Z,101300
2022-08-22T04:10:10.110Z,101300
2022-08-22T04:11:03.388Z,101300
2022-08-22T04:12:10.091Z,101300
2022-08-22T04:13:10.105Z,101300
2022-08-22T04:14:10.090Z,101300
2022-08-22T04:15:10.100Z,101300
2022-08-22T04:16:07.440Z,101300
2022-08-22T04:17:03.380Z,101300
2022-08-22T04:18:07.454Z,101290
2022-08-22T04:19:08.490Z,101300
2022-08-22T04:20:08.125Z,101300
2022-08-22T04:21:10.092Z,101310
2022-08-22T04:22:01.138Z,101310
2022-08-22T04:23:08.665Z,101310
2022-08-22T04:24:08.055Z,101310
2022-08-22T04:25:10.105Z,101310
2022-08-22T04:26:10.754Z,101310
2022-08-22T04:27:05.452Z,101310
2022-08-22T04:28:04.815Z,101310
2022-08-22T04:29:04.692Z,101310
2022-08-22T04:30:01.144Z,101310
2022-08-22T04:31:00.141Z,101310
2022-08-22T04:32:14.433Z,101310
2022-08-22T04:33:10.088Z,101320
2022-08-22T04:34:03.543Z,101320
2022-08-22T04:35:05.400Z,101320
2022-08-22T04:36:10.088Z,101310
2022-08-22T04:37:02.673Z,101310
2022-08-22T04:38:04.254Z,101310
2022-08-22T04:39:03.984Z,101310
2022-08-22T04:40:10.145Z,101320
2022-08-22T04:41:05.741Z,101320
2022-08-22T04:42:29.102Z,101310
2022-08-22T04:43:03.618Z,101310
2022-08-22T04:44:00.132Z,101310
2022-08-22T04:45:04.680Z,101310
2022-08-22T04:46:04.287Z,101300
2022-08-22T04:47:04.873Z,101300
2022-08-22T04:48:04.866Z,101300
2022-08-22T04:49:06.956Z,101300
2022-08-22T04:50:04.549Z,101310
2022-08-22T04:51:02.297Z,101310
2022-08-22T04:52:08.298Z,101310
2022-08-22T04:53:07.417Z,101310
2022-08-22T04:54:08.381Z,101310
2022-08-22T04:55:10.096Z,101310
2022-08-22T04:56:07.306Z,101310
2022-08-22T04:57:00.135Z,101310
2022-08-22T04:58:08.501Z,101310
2022-08-22T04:59:03.054Z,101310
2022-08-22T05:00:02.622Z,101310
2022-08-22T05:01:10.091Z,101310
2022-08-22T05:02:01.654Z,101310
2022-08-22T05:03:00.914Z,101310
2022-08-22T05:04:02.216Z,101320
2022-08-22T05:05:02.408Z,101320
2022-08-22T05:06:02.169Z,101320
2022-08-22T05:07:00.135Z,101320
2022-08-22T05:08:01.397Z,101330
2022-08-22T05:09:03.325Z,101330
2022-08-22T05:10:11.668Z,101340
2022-08-22T05:11:02.156Z,101340
2022-08-22T05:12:04.409Z,101340
2022-08-22T05:13:02.739Z,101340
2022-08-22T05:14:04.350Z,101340
2022-08-22T05:15:04.646Z,101340
2022-08-22T05:16:02.301Z,101340
2022-08-22T05:17:01.586Z,101340
2022-08-22T05:18:04.592Z,101340
2022-08-22T05:19:02.240Z,101340
2022-08-22T05:20:02.811Z,101340
2022-08-22T05:21:02.264Z,101340
2022-08-22T05:22:00.775Z,101330
2022-08-22T05:23:05.773Z,101330
2022-08-22T05:24:06.050Z,101330
2022-08-22T05:25:02.127Z,101330
2022-08-22T05:26:01.411Z,101330
2022-08-22T05:27:08.560Z,101330
2022-08-22T05:28:06.838Z,101330
2022-08-22T05:29:01.692Z,101330
2022-08-22T05:30:04.993Z,101340
2022-08-22T05:31:04.136Z,101340
2022-08-22T05:32:02.634Z,101340
2022-08-22T05:33:10.085Z,101330
2022-08-22T05:34:03.565Z,101330
2022-08-22T05:35:02.488Z,101330
2022-08-22T05:36:03.058Z,101340
2022-08-22T05:37:04.913Z,101340
2022-08-22T05:38:01.229Z,101340
2022-08-22T05:39:04.639Z,101340
2022-08-22T05:40:00.456Z,101340
2022-08-22T05:41:04.318Z,101340
2022-08-22T05:42:01.846Z,101340
2022-08-22T05:43:00.177Z,101340
2022-08-22T05:44:00.667Z,101350
2022-08-22T05:45:02.054Z,101350
2022-08-22T05:46:00.439Z,101350
2022-08-22T05:47:07.122Z,101350
2022-08-22T05:48:03.995Z,101350
2022-08-22T05:49:00.991Z,101350
2022-08-22T05:50:00.157Z,101350
2022-08-22T05:51:07.587Z,101350
2022-08-22T05:52:06.534Z,101350
2022-08-22T05:53:10.091Z,101360
2022-08-22T05:54:08.177Z,101360
2022-08-22T05:55:10.090Z,101350
2022-08-22T05:56:07.095Z,101350
2022-08-22T05:57:07.975Z,101350
2022-08-22T05:58:01.139Z,101350
2022-08-22T05:59:02.457Z,101350
2022-08-22T06:00:04.678Z,101350
2022-08-22T06:01:07.945Z,101340
2022-08-22T06:02:07.524Z,101340
2022-08-22T06:03:10.087Z,101340
2022-08-22T06:04:07.618Z,101340
2022-08-22T06:05:02.791Z,101340
2022-08-22T06:06:05.724Z,101340
2022-08-22T06:07:03.425Z,101340
2022-08-22T06:08:03.907Z,101340
2022-08-22T06:09:03.371Z,101340
2022-08-22T06:10:00.152Z,101340
2022-08-22T06:11:05.119Z,101340
2022-08-22T06:12:01.153Z,101340
2022-08-22T06:13:02.526Z,101340
2022-08-22T06:14:06.672Z,101350
2022-08-22T06:15:01.132Z,101350
2022-08-22T06:16:00.137Z,101350
2022-08-22T06:17:05.878Z,101350
2022-08-22T06:18:01.903Z,101350
2022-08-22T06:19:02.109Z,101350
2022-08-22T06:20:01.514Z,101350
2022-08-22T06:21:02.448Z,101350
2022-08-22T06:22:00.752Z,101350
2022-08-22T06:23:01.367Z,101350
2022-08-22T06:24:01.510Z,101350
2022-08-22T06:25:05.671Z,101350
2022-08-22T06:26:00.526Z,101350
2022-08-22T06:27:03.727Z,101350
2022-08-22T06:28:02.969Z,101350
2022-08-22T06:29:00.624Z,101350
2022-08-22T06:30:01.391Z,101350
2022-08-22T06:31:01.452Z,101350
2022-08-22T06:32:02.364Z,101360
2022-08-22T06:33:01.661Z,101360
2022-08-22T06:34:07.669Z,101360
2022-08-22T06:35:02.974Z,101360
2022-08-22T06:36:03.346Z,101360
2022-08-22T06:37:03.195Z,101360
2022-08-22T06:38:00.399Z,101370
2022-08-22T06:39:00.137Z,101370
2022-08-22T06:40:01.465Z,101370
2022-08-22T06:41:02.247Z,101370
2022-08-22T06:42:00.147Z,101370
2022-08-22T06:43:00.477Z,101370
2022-08-22T06:44:01.349Z,101370
2022-08-22T06:45:00.148Z,101370
2022-08-22T06:46:00.372Z,101370
2022-08-22T06:47:02.247Z,101370
2022-08-22T06:48:07.831Z,101370
2022-08-22T06:49:01.693Z,101370
2022-08-22T06:50:04.209Z,101380
2022-08-22T06:51:00.501Z,101380
2022-08-22T06:52:01.925Z,101380
2022-08-22T06:53:04.938Z,101380
2022-08-22T06:54:02.138Z,101380
2022-08-22T06:55:05.200Z,101380
2022-08-22T06:56:01.510Z,101380
2022-08-22T06:57:01.994Z,101380
2022-08-22T06:58:03.760Z,101380
2022-08-22T06:59:02.190Z,101380
2022-08-22T07:00:03.546Z,101380
2022-08-22T07:01:12.395Z,101380
2022-08-22T07:02:02.644Z,101380
2022-08-22T07:03:06.625Z,101380
2022-08-22T07:04:05.015Z,101380
2022-08-22T07:05:00.499Z,101380
2022-08-22T07:06:00.765Z,101380
2022-08-22T07:07:00.348Z,101380
2022-08-22T07:08:04.193Z,101380
2022-08-22T07:09:00.724Z,101380
2022-08-22T07:10:00.340Z,101380
2022-08-22T07:11:10.089Z,101380
2022-08-22T07:12:01.948Z,101380
2022-08-22T07:13:00.211Z,101380
2022-08-22T07:14:01.852Z,101380
2022-08-22T07:15:08.256Z,101380
2022-08-22T07:16:03.710Z,101380
2022-08-22T07:17:01.934Z,101380
2022-08-22T07:18:02.831Z,101380
2022-08-22T07:19:00.548Z,101380
2022-08-22T07:20:10.100Z,101380
2022-08-22T07:21:02.505Z,101380
2022-08-22T07:22:10.005Z,101380
2022-08-22T07:23:03.085Z,101380
2022-08-22T07:24:00.193Z,101380
2022-08-22T07:25:10.097Z,101380
2022-08-22T07:26:03.381Z,101380
2022-08-22T07:27:05.482Z,101380
2022-08-22T07:28:01.197Z,101380
2022-08-22T07:29:11.285Z,101380
2022-08-22T07:30:05.800Z,101380
2022-08-22T07:31:03.996Z,101380
2022-08-22T07:32:01.150Z,101390
2022-08-22T07:33:23.634Z,101390
2022-08-22T07:34:10.093Z,101380
2022-08-22T07:35:01.138Z,101380
2022-08-22T07:36:06.710Z,101380
2022-08-22T07:37:00.143Z,101380
2022-08-22T07:38:00.505Z,101380
2022-08-22T07:39:00.138Z,101380
2022-08-22T07:40:10.149Z,101380
2022-08-22T07:41:00.149Z,101380
2022-08-22T07:42:04.558Z,101380
2022-08-22T07:43:01.140Z,101380
2022-08-22T07:44:10.092Z,101380
2022-08-22T07:45:06.829Z,101380
2022-08-22T07:46:07.464Z,101380
2022-08-22T07:47:06.255Z,101380
2022-08-22T07:48:04.495Z,101370
2022-08-22T07:49:09.380Z,101370
2022-08-22T07:50:01.363Z,101370
2022-08-22T07:51:02.664Z,101370
2022-08-22T07:52:04.332Z,101360
2022-08-22T07:53:08.549Z,101370
2022-08-22T07:54:09.900Z,101370
2022-08-22T07:55:08.719Z,101370
2022-08-22T07:56:02.094Z,101370
2022-08-22T07:57:01.928Z,101370
2022-08-22T07:58:04.108Z,101370
2022-08-22T07:59:10.093Z,101370
2022-08-22T08:00:00.593Z,101370
2022-08-22T08:01:00.839Z,101370
2022-08-22T08:02:03.725Z,101370
2022-08-22T08:03:01.651Z,101370
2022-08-22T08:04:04.980Z,101370
2022-08-22T08:05:00.510Z,101370
2022-08-22T08:06:00.803Z,101370
2022-08-22T08:07:01.302Z,101370
2022-08-22T08:08:02.368Z,101370
2022-08-22T08:09:00.557Z,101370
2022-08-22T08:10:12.939Z,101370
2022-08-22T08:11:00.870Z,101370
2022-08-22T08:12:02.692Z,101360
2022-08-22T08:13:02.980Z,101360
2022-08-22T08:14:01.570Z,101360
2022-08-22T08:15:01.148Z,101360
2022-08-22T08:16:01.043Z,101360
2022-08-22T08:17:02.258Z,101360
2022-08-22T08:18:03.748Z,101360
2022-08-22T08:19:00.916Z,101360
2022-08-22T08:20:04.952Z,101360
2022-08-22T08:21:02.756Z,101360
2022-08-22T08:22:00.554Z,101350
2022-08-22T08:23:00.534Z,101350
2022-08-22T08:24:00.865Z,101350
2022-08-22T08:25:01.225Z,101350
2022-08-22T08:26:00.143Z,101350
2022-08-22T08:27:02.007Z,101350
2022-08-22T08:28:00.328Z,101340
2022-08-22T08:29:01.875Z,101340
2022-08-22T08:30:03.398Z,101350
2022-08-22T08:31:04.975Z,101350
2022-08-22T08:32:00.402Z,101340
2022-08-22T08:33:24.865Z,101340
2022-08-22T08:34:04.185Z,101340
2022-08-22T08:35:03.357Z,101340
2022-08-22T08:36:10.095Z,101340
2022-08-22T08:37:03.822Z,101340
2022-08-22T08:38:04.846Z,101340
2022-08-22T08:39:01.187Z,101340
2022-08-22T08:40:02.674Z,101340
2022-08-22T08:41:10.089Z,101340
2022-08-22T08:42:10.099Z,101340
2022-08-22T08:43:10.630Z,101330
2022-08-22T08:44:10.093Z,101330
2022-08-22T08:45:10.097Z,101330
2022-08-22T08:46:10.088Z,101330
2022-08-22T08:47:10.088Z,101330
2022-08-22T08:48:10.092Z,101330
2022-08-22T08:49:00.130Z,101330
2022-08-22T08:50:06.846Z,101330
2022-08-22T08:51:10.088Z,101330
2022-08-22T08:52:00.146Z,101330
2022-08-22T08:53:10.089Z,101330
2022-08-22T08:54:01.138Z,101330
2022-08-22T08:55:22.080Z,101330
2022-08-22T08:56:03.420Z,101330
2022-08-22T08:57:07.546Z,101330
2022-08-22T08:59:10.477Z,101330
2022-08-22T09:00:00.169Z,101330
2022-08-22T09:01:10.120Z,101330
2022-08-22T09:02:07.578Z,101330
2022-08-22T09:03:10.090Z,101330
2022-08-22T09:04:15.205Z,101330
2022-08-22T09:05:10.094Z,101330
2022-08-22T09:06:07.127Z,101330
2022-08-22T09:07:10.090Z,101330
2022-08-22T09:08:11.844Z,101330
2022-08-22T09:09:00.142Z,101330
2022-08-22T09:10:10.108Z,101320
2022-08-22T09:11:00.137Z,101320
2022-08-22T09:12:07.502Z,101320
2022-08-22T09:13:12.314Z,101330
2022-08-22T09:14:10.089Z,101330
2022-08-22T09:15:14.318Z,101320
2022-08-22T09:16:04.802Z,101320
2022-08-22T09:17:00.135Z,101320
2022-08-22T09:18:10.089Z,101320
2022-08-22T09:19:10.087Z,101320
2022-08-22T09:20:15.514Z,101320
2022-08-22T09:21:08.095Z,101320
2022-08-22T09:22:14.668Z,101320
2022-08-22T09:23:10.967Z,101310
2022-08-22T09:24:09.870Z,101310
2022-08-22T09:25:10.094Z,101320
2022-08-22T09:26:04.988Z,101320
2022-08-22T09:27:08.680Z,101320
2022-08-22T09:28:06.654Z,101310
2022-08-22T09:29:10.088Z,101310
2022-08-22T09:30:04.572Z,101310
2022-08-22T09:32:13.130Z,101310
2022-08-22T09:33:07.747Z,101320
2022-08-22T09:34:10.093Z,101320
2022-08-22T09:35:05.541Z,101320
2022-08-22T09:36:02.419Z,101310
2022-08-22T09:37:10.093Z,101310
2022-08-22T09:38:10.103Z,101310
2022-08-22T09:39:00.133Z,101310
2022-08-22T09:40:06.132Z,101310
2022-08-22T09:40:16.007Z,101330
2022-08-22T09:41:10.093Z,101310
2022-08-22T09:42:10.098Z,101310
2022-08-22T09:43:04.023Z,101310
2022-08-22T09:44:03.375Z,101320
2022-08-22T09:45:10.095Z,101310
2022-08-22T09:46:02.018Z,101310
2022-08-22T09:47:06.899Z,101310
2022-08-22T09:48:10.090Z,101310
2022-08-22T09:49:05.489Z,101310
2022-08-22T09:50:06.786Z,101310
2022-08-22T09:51:28.566Z,101310
2022-08-22T09:52:04.818Z,101310
2022-08-22T09:53:10.090Z,101310
2022-08-22T09:54:08.068Z,101310
2022-08-22T09:55:08.073Z,101310
2022-08-22T09:56:14.995Z,101310
2022-08-22T09:57:00.128Z,101310
2022-08-22T09:58:11.383Z,101310
2022-08-22T09:59:03.832Z,101310
2022-08-22T10:00:00.152Z,101310
2022-08-22T10:01:04.548Z,101310
2022-08-22T10:02:15.317Z,101310
2022-08-22T10:03:01.426Z,101310
2022-08-22T10:04:10.100Z,101310
2022-08-22T10:05:06.306Z,101310
2022-08-22T10:06:03.520Z,101310
2022-08-22T10:07:12.029Z,101300
2022-08-22T10:08:11.509Z,101300
2022-08-22T10:09:04.520Z,101300
2022-08-22T10:10:04.783Z,101300
2022-08-22T10:11:10.089Z,101300
2022-08-22T10:12:03.850Z,101300
2022-08-22T10:13:01.379Z,101300
2022-08-22T10:14:02.851Z,101300
2022-08-22T10:15:10.095Z,101300
2022-08-22T10:16:10.342Z,101300
2022-08-22T10:17:07.553Z,101300
2022-08-22T10:18:00.137Z,101300
2022-08-22T10:19:10.088Z,101300
2022-08-22T10:20:10.101Z,101300
2022-08-22T10:21:09.699Z,101300
2022-08-22T10:22:10.094Z,101300
2022-08-22T10:23:10.084Z,101300
2022-08-22T10:24:10.092Z,101300
2022-08-22T10:25:01.146Z,101300
2022-08-22T10:26:10.096Z,101290
2022-08-22T10:27:03.664Z,101290
2022-08-22T10:28:10.464Z,101290
2022-08-22T10:29:01.145Z,101290
2022-08-22T10:30:05.514Z,101290
2022-08-22T10:31:10.086Z,101290
2022-08-22T10:32:14.490Z,101290
2022-08-22T10:33:05.761Z,101290
2022-08-22T10:34:00.134Z,101280
2022-08-22T10:35:06.298Z,101280
2022-08-22T10:36:05.128Z,101280
2022-08-22T10:37:10.345Z,101290
2022-08-22T10:38:10.732Z,101290
2022-08-22T10:39:10.987Z,101290
2022-08-22T10:40:00.335Z,101290
2022-08-22T10:41:10.097Z,101280
2022-08-22T10:42:07.456Z,101280
2022-08-22T10:43:06.909Z,101280
2022-08-22T10:44:04.196Z,101280
2022-08-22T10:45:03.382Z,101280
2022-08-22T10:46:02.103Z,101280
2022-08-22T10:47:05.010Z,101280
2022-08-22T10:48:03.386Z,101280
2022-08-22T10:49:05.715Z,101280
2022-08-22T10:50:08.689Z,101280
2022-08-22T10:51:03.948Z,101280
2022-08-22T10:52:15.304Z,101280
2022-08-22T10:53:07.907Z,101280
2022-08-22T10:54:07.566Z,101280
2022-08-22T10:55:10.259Z,101270
2022-08-22T10:56:08.008Z,101270
2022-08-22T10:57:10.092Z,101270
2022-08-22T10:58:07.512Z,101270
2022-08-22T10:59:10.090Z,101270
2022-08-22T11:00:05.505Z,101270
2022-08-22T11:01:01.635Z,101270
2022-08-22T11:02:10.133Z,101270
2022-08-22T11:03:10.990Z,101270
2022-08-22T11:04:12.243Z,101270
2022-08-22T11:05:01.147Z,101270
2022-08-22T11:06:02.585Z,101270
2022-08-22T11:07:10.098Z,101270
2022-08-22T11:08:10.097Z,101270
2022-08-22T11:09:10.104Z,101260
2022-08-22T11:10:04.024Z,101260
2022-08-22T11:11:05.648Z,101260
2022-08-22T11:12:02.283Z,101260
2022-08-22T11:13:00.444Z,101260
2022-08-22T11:14:10.091Z,101250
2022-08-22T11:15:04.178Z,101250
2022-08-22T11:16:00.139Z,101260
2022-08-22T11:17:12.011Z,101260
2022-08-22T11:18:10.754Z,101260
2022-08-22T11:19:14.950Z,101260
2022-08-22T11:20:10.096Z,101260
2022-08-22T11:21:10.089Z,101260
2022-08-22T11:22:03.713Z,101260
2022-08-22T11:23:12.371Z,101260
2022-08-22T11:24:17.395Z,101260
2022-08-22T11:25:11.373Z,101260
2022-08-22T11:26:05.147Z,101260
2022-08-22T11:27:13.174Z,101260
2022-08-22T11:28:09.410Z,101260
2022-08-22T11:29:14.059Z,101260
2022-08-22T11:30:05.497Z,101260
2022-08-22T11:31:01.136Z,101260
2022-08-22T11:32:05.735Z,101260
2022-08-22T11:33:08.504Z,101260
2022-08-22T11:34:10.277Z,101260
2022-08-22T11:35:03.848Z,101260
2022-08-22T11:36:10.112Z,101260
2022-08-22T11:37:11.624Z,101250
2022-08-22T11:38:04.070Z,101250
2022-08-22T11:39:06.720Z,101250
2022-08-22T11:40:11.824Z,101250
2022-08-22T11:41:08.746Z,101250
2022-08-22T11:42:05.991Z,101250
2022-08-22T11:43:10.648Z,101250
2022-08-22T11:44:03.490Z,101250
2022-08-22T11:45:01.079Z,101250
2022-08-22T11:46:10.092Z,101250
2022-08-22T11:47:01.385Z,101250
2022-08-22T11:48:08.388Z,101250
2022-08-22T11:49:07.422Z,101250
2022-08-22T11:50:00.158Z,101250
2022-08-22T11:51:13.376Z,101250
2022-08-22T11:52:00.133Z,101250
2022-08-22T11:53:10.091Z,101250
2022-08-22T11:54:09.393Z,101250
2022-08-22T11:55:10.093Z,101250
2022-08-22T11:56:05.579Z,101250
2022-08-22T11:57:10.094Z,101240
2022-08-22T11:58:10.099Z,101240
2022-08-22T11:59:05.689Z,101240
2022-08-22T12:00:10.103Z,101240
2022-08-22T12:01:02.420Z,101240
2022-08-22T12:02:03.965Z,101240
2022-08-22T12:03:10.092Z,101240
2022-08-22T12:04:03.765Z,101240
2022-08-22T12:05:08.054Z,101230
2022-08-22T12:06:05.204Z,101230
2022-08-22T12:07:08.832Z,101240
2022-08-22T12:08:01.144Z,101240
2022-08-22T12:09:10.105Z,101230
2022-08-22T12:10:13.458Z,101230
2022-08-22T12:11:06.259Z,101230
2022-08-22T12:12:10.095Z,101240
2022-08-22T12:13:05.799Z,101240
2022-08-22T12:14:06.243Z,101240
2022-08-22T12:15:05.120Z,101240
2022-08-22T12:16:10.093Z,101240
2022-08-22T12:17:05.182Z,101240
2022-08-22T12:18:10.095Z,101230
2022-08-22T12:19:10.090Z,101230
2022-08-22T12:20:16.059Z,101230
2022-08-22T12:21:00.125Z,101230
2022-08-22T12:22:10.096Z,101240
2022-08-22T12:23:10.097Z,101240